sensor_id;sensor_type;location;lat;lon;timestamp;P1;durP1;ratioP1;P2;durP2;ratioP2
55114;SDS011;41010;53.252;5.786;2023-04-01T00:00:59;12.00;;;6.97;;
55114;SDS011;41010;53.252;5.786;2023-04-01T00:03:27;10.38;;;7.47;;
55114;SDS011;41010;53.252;5.786;2023-04-01T00:05:56;10.55;;;7.45;;
55114;SDS011;41010;53.252;5.786;2023-04-01T00:08:23;14.07;;;8.00;;
55114;SDS011;41010;53.252;5.786;2023-04-01T00:10:51;10.70;;;7.55;;
55114;SDS011;41010;53.252;5.786;2023-04-01T00:13:19;10.25;;;7.20;;
55114;SDS011;41010;53.252;5.786;2023-04-01T00:15:47;10.45;;;7.65;;
55114;SDS011;41010;53.252;5.786;2023-04-01T00:18:16;10.45;;;7.85;;
55114;SDS011;41010;53.252;5.786;2023-04-01T00:20:44;12.15;;;8.02;;
55114;SDS011;41010;53.252;5.786;2023-04-01T00:23:11;11.70;;;8.02;;
55114;SDS011;41010;53.252;5.786;2023-04-01T00:25:38;11.90;;;8.02;;
55114;SDS011;41010;53.252;5.786;2023-04-01T00:28:06;9.27;;;7.70;;
55114;SDS011;41010;53.252;5.786;2023-04-01T00:30:33;12.48;;;8.55;;
55114;SDS011;41010;53.252;5.786;2023-04-01T00:33:00;12.95;;;8.57;;
55114;SDS011;41010;53.252;5.786;2023-04-01T00:35:29;12.32;;;7.55;;
55114;SDS011;41010;53.252;5.786;2023-04-01T00:37:57;12.52;;;8.68;;
55114;SDS011;41010;53.252;5.786;2023-04-01T00:40:26;10.35;;;7.75;;
55114;SDS011;41010;53.252;5.786;2023-04-01T00:42:54;11.93;;;8.82;;
55114;SDS011;41010;53.252;5.786;2023-04-01T00:45:26;12.77;;;8.43;;
55114;SDS011;41010;53.252;5.786;2023-04-01T00:47:53;12.77;;;8.07;;
55114;SDS011;41010;53.252;5.786;2023-04-01T00:50:21;15.25;;;8.80;;
55114;SDS011;41010;53.252;5.786;2023-04-01T00:52:51;11.13;;;8.32;;
55114;SDS011;41010;53.252;5.786;2023-04-01T00:55:19;10.55;;;8.52;;
55114;SDS011;41010;53.252;5.786;2023-04-01T00:57:48;12.05;;;9.45;;
55114;SDS011;41010;53.252;5.786;2023-04-01T01:00:16;14.10;;;9.63;;
55114;SDS011;41010;53.252;5.786;2023-04-01T01:02:45;15.38;;;9.20;;
55114;SDS011;41010;53.252;5.786;2023-04-01T01:05:12;13.02;;;8.65;;
55114;SDS011;41010;53.252;5.786;2023-04-01T01:07:41;12.02;;;8.48;;
55114;SDS011;41010;53.252;5.786;2023-04-01T01:10:15;12.52;;;8.73;;
55114;SDS011;41010;53.252;5.786;2023-04-01T01:12:45;13.15;;;8.95;;
55114;SDS011;41010;53.252;5.786;2023-04-01T01:15:14;12.40;;;9.23;;
55114;SDS011;41010;53.252;5.786;2023-04-01T01:17:48;13.02;;;8.52;;
55114;SDS011;41010;53.252;5.786;2023-04-01T01:20:24;9.57;;;7.50;;
55114;SDS011;41010;53.252;5.786;2023-04-01T01:25:43;12.57;;;8.88;;
55114;SDS011;41010;53.252;5.786;2023-04-01T01:28:21;14.68;;;9.43;;
55114;SDS011;41010;53.252;5.786;2023-04-01T01:30:52;12.88;;;9.52;;
55114;SDS011;41010;53.252;5.786;2023-04-01T01:33:34;12.30;;;9.02;;
55114;SDS011;41010;53.252;5.786;2023-04-01T01:36:06;12.68;;;9.48;;
55114;SDS011;41010;53.252;5.786;2023-04-01T01:38:34;13.23;;;9.07;;
55114;SDS011;41010;53.252;5.786;2023-04-01T01:41:02;16.08;;;9.90;;
55114;SDS011;41010;53.252;5.786;2023-04-01T01:43:33;12.95;;;9.18;;
55114;SDS011;41010;53.252;5.786;2023-04-01T01:46:03;11.70;;;8.82;;
55114;SDS011;41010;53.252;5.786;2023-04-01T01:48:33;16.58;;;9.98;;
55114;SDS011;41010;53.252;5.786;2023-04-01T01:51:01;13.77;;;10.15;;
55114;SDS011;41010;53.252;5.786;2023-04-01T01:53:30;15.23;;;10.02;;
55114;SDS011;41010;53.252;5.786;2023-04-01T01:55:57;16.42;;;9.85;;
55114;SDS011;41010;53.252;5.786;2023-04-01T01:58:25;12.75;;;9.48;;
55114;SDS011;41010;53.252;5.786;2023-04-01T02:00:55;11.90;;;9.68;;
55114;SDS011;41010;53.252;5.786;2023-04-01T02:03:23;13.27;;;10.07;;
55114;SDS011;41010;53.252;5.786;2023-04-01T02:05:52;14.45;;;10.32;;
55114;SDS011;41010;53.252;5.786;2023-04-01T02:08:21;11.95;;;9.55;;
55114;SDS011;41010;53.252;5.786;2023-04-01T02:10:52;15.20;;;10.98;;
55114;SDS011;41010;53.252;5.786;2023-04-01T02:13:24;16.60;;;11.67;;
55114;SDS011;41010;53.252;5.786;2023-04-01T02:15:52;17.67;;;10.90;;
55114;SDS011;41010;53.252;5.786;2023-04-01T02:18:21;18.15;;;11.43;;
55114;SDS011;41010;53.252;5.786;2023-04-01T02:20:49;22.10;;;12.48;;
55114;SDS011;41010;53.252;5.786;2023-04-01T02:23:17;15.70;;;11.30;;
55114;SDS011;41010;53.252;5.786;2023-04-01T02:25:44;16.92;;;11.70;;
55114;SDS011;41010;53.252;5.786;2023-04-01T02:28:13;18.45;;;12.52;;
55114;SDS011;41010;53.252;5.786;2023-04-01T02:30:44;18.00;;;12.18;;
55114;SDS011;41010;53.252;5.786;2023-04-01T02:33:12;17.40;;;12.45;;
55114;SDS011;41010;53.252;5.786;2023-04-01T02:35:40;18.52;;;12.60;;
55114;SDS011;41010;53.252;5.786;2023-04-01T02:38:07;16.83;;;12.10;;
55114;SDS011;41010;53.252;5.786;2023-04-01T02:40:45;18.50;;;12.93;;
55114;SDS011;41010;53.252;5.786;2023-04-01T02:43:14;15.27;;;11.25;;
55114;SDS011;41010;53.252;5.786;2023-04-01T02:45:41;17.38;;;11.65;;
55114;SDS011;41010;53.252;5.786;2023-04-01T02:48:08;19.23;;;13.02;;
55114;SDS011;41010;53.252;5.786;2023-04-01T02:50:38;18.77;;;12.55;;
55114;SDS011;41010;53.252;5.786;2023-04-01T02:53:05;15.55;;;11.23;;
55114;SDS011;41010;53.252;5.786;2023-04-01T02:55:33;19.23;;;11.98;;
55114;SDS011;41010;53.252;5.786;2023-04-01T02:58:00;15.52;;;12.45;;
55114;SDS011;41010;53.252;5.786;2023-04-01T03:00:29;18.25;;;12.40;;
55114;SDS011;41010;53.252;5.786;2023-04-01T03:02:56;16.48;;;11.52;;
55114;SDS011;41010;53.252;5.786;2023-04-01T03:05:24;16.85;;;11.70;;
55114;SDS011;41010;53.252;5.786;2023-04-01T03:07:51;15.80;;;11.50;;
55114;SDS011;41010;53.252;5.786;2023-04-01T03:10:18;14.93;;;11.25;;
55114;SDS011;41010;53.252;5.786;2023-04-01T03:12:46;17.92;;;12.27;;
55114;SDS011;41010;53.252;5.786;2023-04-01T03:15:13;14.90;;;11.85;;
55114;SDS011;41010;53.252;5.786;2023-04-01T03:17:42;18.58;;;12.02;;
55114;SDS011;41010;53.252;5.786;2023-04-01T03:20:10;15.57;;;10.82;;
55114;SDS011;41010;53.252;5.786;2023-04-01T03:22:38;15.23;;;11.73;;
55114;SDS011;41010;53.252;5.786;2023-04-01T03:25:05;16.80;;;11.95;;
55114;SDS011;41010;53.252;5.786;2023-04-01T03:27:33;20.13;;;12.80;;
55114;SDS011;41010;53.252;5.786;2023-04-01T03:30:01;18.58;;;12.15;;
55114;SDS011;41010;53.252;5.786;2023-04-01T03:32:28;20.20;;;11.70;;
55114;SDS011;41010;53.252;5.786;2023-04-01T03:34:57;16.33;;;10.65;;
55114;SDS011;41010;53.252;5.786;2023-04-01T03:37:24;14.07;;;9.93;;
55114;SDS011;41010;53.252;5.786;2023-04-01T03:39:51;12.85;;;9.38;;
55114;SDS011;41010;53.252;5.786;2023-04-01T03:42:18;13.52;;;9.70;;
55114;SDS011;41010;53.252;5.786;2023-04-01T03:44:46;17.45;;;10.60;;
55114;SDS011;41010;53.252;5.786;2023-04-01T03:47:13;17.40;;;10.50;;
55114;SDS011;41010;53.252;5.786;2023-04-01T03:49:40;16.10;;;11.23;;
55114;SDS011;41010;53.252;5.786;2023-04-01T03:52:10;24.23;;;12.75;;
55114;SDS011;41010;53.252;5.786;2023-04-01T03:54:37;15.68;;;9.68;;
55114;SDS011;41010;53.252;5.786;2023-04-01T03:57:05;16.27;;;9.23;;
55114;SDS011;41010;53.252;5.786;2023-04-01T03:59:32;15.00;;;9.77;;
55114;SDS011;41010;53.252;5.786;2023-04-01T04:02:00;17.15;;;10.40;;
55114;SDS011;41010;53.252;5.786;2023-04-01T04:04:27;14.35;;;10.50;;
55114;SDS011;41010;53.252;5.786;2023-04-01T04:06:55;20.55;;;12.73;;
55114;SDS011;41010;53.252;5.786;2023-04-01T04:09:23;25.77;;;13.43;;
55114;SDS011;41010;53.252;5.786;2023-04-01T04:11:51;22.88;;;13.90;;
55114;SDS011;41010;53.252;5.786;2023-04-01T04:14:18;24.05;;;13.00;;
55114;SDS011;41010;53.252;5.786;2023-04-01T04:16:45;23.88;;;14.43;;
55114;SDS011;41010;53.252;5.786;2023-04-01T04:19:12;23.50;;;14.57;;
55114;SDS011;41010;53.252;5.786;2023-04-01T04:21:40;24.75;;;15.48;;
55114;SDS011;41010;53.252;5.786;2023-04-01T04:24:08;25.23;;;15.00;;
55114;SDS011;41010;53.252;5.786;2023-04-01T04:26:36;26.40;;;15.40;;
55114;SDS011;41010;53.252;5.786;2023-04-01T04:29:04;27.42;;;16.88;;
55114;SDS011;41010;53.252;5.786;2023-04-01T04:31:31;35.03;;;16.55;;
55114;SDS011;41010;53.252;5.786;2023-04-01T04:33:58;29.98;;;16.58;;
55114;SDS011;41010;53.252;5.786;2023-04-01T04:36:26;27.08;;;16.30;;
55114;SDS011;41010;53.252;5.786;2023-04-01T04:38:54;27.88;;;16.02;;
55114;SDS011;41010;53.252;5.786;2023-04-01T04:41:23;28.23;;;16.25;;
55114;SDS011;41010;53.252;5.786;2023-04-01T04:43:52;27.83;;;16.77;;
55114;SDS011;41010;53.252;5.786;2023-04-01T04:46:20;29.00;;;16.25;;
55114;SDS011;41010;53.252;5.786;2023-04-01T04:48:47;26.15;;;15.73;;
55114;SDS011;41010;53.252;5.786;2023-04-01T04:51:15;34.38;;;17.35;;
55114;SDS011;41010;53.252;5.786;2023-04-01T04:53:42;27.42;;;16.80;;
55114;SDS011;41010;53.252;5.786;2023-04-01T04:56:10;25.67;;;15.98;;
55114;SDS011;41010;53.252;5.786;2023-04-01T04:58:37;27.48;;;16.23;;
55114;SDS011;41010;53.252;5.786;2023-04-01T05:01:07;36.55;;;18.45;;
55114;SDS011;41010;53.252;5.786;2023-04-01T05:03:35;28.10;;;16.92;;
55114;SDS011;41010;53.252;5.786;2023-04-01T05:06:03;30.08;;;16.83;;
55114;SDS011;41010;53.252;5.786;2023-04-01T05:08:30;32.05;;;17.80;;
55114;SDS011;41010;53.252;5.786;2023-04-01T05:10:59;36.08;;;18.10;;
55114;SDS011;41010;53.252;5.786;2023-04-01T05:13:26;28.33;;;17.73;;
55114;SDS011;41010;53.252;5.786;2023-04-01T05:15:54;25.55;;;16.17;;
55114;SDS011;41010;53.252;5.786;2023-04-01T05:18:22;25.65;;;16.05;;
55114;SDS011;41010;53.252;5.786;2023-04-01T05:20:51;30.65;;;17.90;;
55114;SDS011;41010;53.252;5.786;2023-04-01T05:23:18;32.15;;;17.25;;
55114;SDS011;41010;53.252;5.786;2023-04-01T05:25:47;33.53;;;19.33;;
55114;SDS011;41010;53.252;5.786;2023-04-01T05:28:14;28.80;;;18.55;;
55114;SDS011;41010;53.252;5.786;2023-04-01T05:30:42;34.13;;;17.90;;
55114;SDS011;41010;53.252;5.786;2023-04-01T05:33:10;31.90;;;17.65;;
55114;SDS011;41010;53.252;5.786;2023-04-01T05:35:39;29.33;;;18.02;;
55114;SDS011;41010;53.252;5.786;2023-04-01T05:38:06;32.00;;;18.98;;
55114;SDS011;41010;53.252;5.786;2023-04-01T05:40:33;32.35;;;17.85;;
55114;SDS011;41010;53.252;5.786;2023-04-01T05:43:01;31.05;;;18.48;;
55114;SDS011;41010;53.252;5.786;2023-04-01T05:45:28;37.15;;;18.70;;
55114;SDS011;41010;53.252;5.786;2023-04-01T05:47:55;28.75;;;18.33;;
55114;SDS011;41010;53.252;5.786;2023-04-01T05:50:22;29.13;;;18.88;;
55114;SDS011;41010;53.252;5.786;2023-04-01T05:52:51;38.63;;;19.70;;
55114;SDS011;41010;53.252;5.786;2023-04-01T05:55:18;37.30;;;20.25;;
55114;SDS011;41010;53.252;5.786;2023-04-01T05:57:46;30.00;;;19.48;;
55114;SDS011;41010;53.252;5.786;2023-04-01T06:00:15;34.67;;;19.60;;
55114;SDS011;41010;53.252;5.786;2023-04-01T06:02:44;34.97;;;19.33;;
55114;SDS011;41010;53.252;5.786;2023-04-01T06:05:14;31.60;;;19.65;;
55114;SDS011;41010;53.252;5.786;2023-04-01T06:07:42;31.80;;;18.73;;
55114;SDS011;41010;53.252;5.786;2023-04-01T06:10:13;38.78;;;19.13;;
55114;SDS011;41010;53.252;5.786;2023-04-01T06:12:49;42.28;;;19.83;;
55114;SDS011;41010;53.252;5.786;2023-04-01T06:15:20;35.17;;;18.73;;
55114;SDS011;41010;53.252;5.786;2023-04-01T06:17:55;38.80;;;18.00;;
55114;SDS011;41010;53.252;5.786;2023-04-01T06:20:29;29.80;;;15.50;;
55114;SDS011;41010;53.252;5.786;2023-04-01T06:23:01;29.90;;;15.38;;
55114;SDS011;41010;53.252;5.786;2023-04-01T06:25:41;25.38;;;14.25;;
55114;SDS011;41010;53.252;5.786;2023-04-01T06:28:29;30.10;;;14.45;;
55114;SDS011;41010;53.252;5.786;2023-04-01T06:31:03;25.45;;;14.15;;
55114;SDS011;41010;53.252;5.786;2023-04-01T06:33:40;27.63;;;14.85;;
55114;SDS011;41010;53.252;5.786;2023-04-01T06:36:14;24.92;;;14.48;;
55114;SDS011;41010;53.252;5.786;2023-04-01T06:38:45;24.33;;;13.27;;
55114;SDS011;41010;53.252;5.786;2023-04-01T06:41:23;32.05;;;16.02;;
55114;SDS011;41010;53.252;5.786;2023-04-01T06:43:57;27.60;;;16.75;;
55114;SDS011;41010;53.252;5.786;2023-04-01T06:46:28;39.35;;;19.13;;
55114;SDS011;41010;53.252;5.786;2023-04-01T06:49:02;38.50;;;19.25;;
55114;SDS011;41010;53.252;5.786;2023-04-01T06:51:33;31.88;;;18.15;;
55114;SDS011;41010;53.252;5.786;2023-04-01T06:54:04;34.20;;;19.65;;
55114;SDS011;41010;53.252;5.786;2023-04-01T06:56:34;32.13;;;19.23;;
55114;SDS011;41010;53.252;5.786;2023-04-01T06:59:04;32.10;;;18.92;;
55114;SDS011;41010;53.252;5.786;2023-04-01T07:01:33;34.28;;;19.98;;
55114;SDS011;41010;53.252;5.786;2023-04-01T07:04:02;38.50;;;21.23;;
55114;SDS011;41010;53.252;5.786;2023-04-01T07:06:32;41.75;;;22.70;;
55114;SDS011;41010;53.252;5.786;2023-04-01T07:09:03;65.90;;;29.00;;
55114;SDS011;41010;53.252;5.786;2023-04-01T07:11:32;56.95;;;27.52;;
55114;SDS011;41010;53.252;5.786;2023-04-01T07:14:03;49.08;;;21.60;;
55114;SDS011;41010;53.252;5.786;2023-04-01T07:16:31;51.60;;;22.05;;
55114;SDS011;41010;53.252;5.786;2023-04-01T07:19:01;51.13;;;22.05;;
55114;SDS011;41010;53.252;5.786;2023-04-01T07:21:29;56.75;;;22.85;;
55114;SDS011;41010;53.252;5.786;2023-04-01T07:24:00;63.95;;;23.80;;
55114;SDS011;41010;53.252;5.786;2023-04-01T07:26:30;64.47;;;22.58;;
55114;SDS011;41010;53.252;5.786;2023-04-01T07:28:57;59.15;;;23.55;;
55114;SDS011;41010;53.252;5.786;2023-04-01T07:31:39;58.28;;;21.80;;
55114;SDS011;41010;53.252;5.786;2023-04-01T07:36:36;36.45;;;17.67;;
55114;SDS011;41010;53.252;5.786;2023-04-01T07:39:08;38.72;;;17.58;;
55114;SDS011;41010;53.252;5.786;2023-04-01T07:41:42;37.95;;;18.40;;
55114;SDS011;41010;53.252;5.786;2023-04-01T07:44:15;47.22;;;19.80;;
55114;SDS011;41010;53.252;5.786;2023-04-01T07:46:59;44.85;;;19.77;;
55114;SDS011;41010;53.252;5.786;2023-04-01T07:49:32;45.25;;;19.77;;
55114;SDS011;41010;53.252;5.786;2023-04-01T07:52:04;39.78;;;19.10;;
55114;SDS011;41010;53.252;5.786;2023-04-01T07:54:37;37.47;;;17.58;;
55114;SDS011;41010;53.252;5.786;2023-04-01T07:57:07;43.90;;;17.80;;
55114;SDS011;41010;53.252;5.786;2023-04-01T07:59:38;43.15;;;17.55;;
55114;SDS011;41010;53.252;5.786;2023-04-01T08:02:16;39.22;;;15.93;;
55114;SDS011;41010;53.252;5.786;2023-04-01T08:04:51;26.02;;;14.55;;
55114;SDS011;41010;53.252;5.786;2023-04-01T08:07:22;23.92;;;11.85;;
55114;SDS011;41010;53.252;5.786;2023-04-01T08:09:51;19.42;;;10.35;;
55114;SDS011;41010;53.252;5.786;2023-04-01T08:12:22;14.95;;;8.50;;
55114;SDS011;41010;53.252;5.786;2023-04-01T08:14:56;18.70;;;6.47;;
55114;SDS011;41010;53.252;5.786;2023-04-01T08:17:28;20.23;;;7.35;;
55114;SDS011;41010;53.252;5.786;2023-04-01T08:20:07;12.88;;;6.18;;
55114;SDS011;41010;53.252;5.786;2023-04-01T08:22:39;14.48;;;5.38;;
55114;SDS011;41010;53.252;5.786;2023-04-01T08:25:10;14.10;;;3.88;;
55114;SDS011;41010;53.252;5.786;2023-04-01T08:27:41;6.57;;;3.00;;
55114;SDS011;41010;53.252;5.786;2023-04-01T08:30:15;11.00;;;3.15;;
55114;SDS011;41010;53.252;5.786;2023-04-01T08:32:46;6.03;;;2.50;;
55114;SDS011;41010;53.252;5.786;2023-04-01T08:35:16;9.32;;;2.40;;
55114;SDS011;41010;53.252;5.786;2023-04-01T08:37:45;11.50;;;2.63;;
55114;SDS011;41010;53.252;5.786;2023-04-01T08:40:27;10.07;;;1.88;;
55114;SDS011;41010;53.252;5.786;2023-04-01T08:43:00;8.05;;;2.30;;
55114;SDS011;41010;53.252;5.786;2023-04-01T08:45:36;7.82;;;2.10;;
55114;SDS011;41010;53.252;5.786;2023-04-01T08:54:00;5.53;;;2.03;;
55114;SDS011;41010;53.252;5.786;2023-04-01T08:56:31;11.45;;;2.42;;
55114;SDS011;41010;53.252;5.786;2023-04-01T08:59:14;11.98;;;2.55;;
55114;SDS011;41010;53.252;5.786;2023-04-01T09:07:17;13.98;;;3.35;;
55114;SDS011;41010;53.252;5.786;2023-04-01T09:10:00;14.07;;;3.83;;
55114;SDS011;41010;53.252;5.786;2023-04-01T09:12:36;8.43;;;3.13;;
55114;SDS011;41010;53.252;5.786;2023-04-01T09:18:09;16.92;;;3.15;;
55114;SDS011;41010;53.252;5.786;2023-04-01T09:23:30;6.85;;;2.10;;
55114;SDS011;41010;53.252;5.786;2023-04-01T09:26:08;6.90;;;2.20;;
55114;SDS011;41010;53.252;5.786;2023-04-01T09:28:41;6.30;;;2.35;;
55114;SDS011;41010;53.252;5.786;2023-04-01T09:31:16;7.07;;;1.90;;
55114;SDS011;41010;53.252;5.786;2023-04-01T09:36:38;12.32;;;2.75;;
55114;SDS011;41010;53.252;5.786;2023-04-01T09:39:18;12.57;;;2.17;;
55114;SDS011;41010;53.252;5.786;2023-04-01T09:41:55;6.43;;;1.83;;
55114;SDS011;41010;53.252;5.786;2023-04-01T09:44:25;9.23;;;2.35;;
55114;SDS011;41010;53.252;5.786;2023-04-01T09:47:01;10.57;;;2.50;;
55114;SDS011;41010;53.252;5.786;2023-04-01T09:49:36;7.57;;;2.40;;
55114;SDS011;41010;53.252;5.786;2023-04-01T09:52:10;7.18;;;2.30;;
55114;SDS011;41010;53.252;5.786;2023-04-01T09:54:46;9.18;;;2.60;;
55114;SDS011;41010;53.252;5.786;2023-04-01T09:57:25;10.60;;;3.00;;
55114;SDS011;41010;53.252;5.786;2023-04-01T10:00:08;9.52;;;2.60;;
55114;SDS011;41010;53.252;5.786;2023-04-01T10:05:26;9.40;;;2.47;;
55114;SDS011;41010;53.252;5.786;2023-04-01T10:16:35;9.85;;;2.00;;
55114;SDS011;41010;53.252;5.786;2023-04-01T10:19:32;12.75;;;2.60;;
55114;SDS011;41010;53.252;5.786;2023-04-01T10:22:20;7.25;;;2.25;;
55114;SDS011;41010;53.252;5.786;2023-04-01T10:27:40;6.72;;;2.25;;
55114;SDS011;41010;53.252;5.786;2023-04-01T10:36:18;9.80;;;2.10;;
55114;SDS011;41010;53.252;5.786;2023-04-01T10:39:03;5.45;;;1.65;;
55114;SDS011;41010;53.252;5.786;2023-04-01T10:41:44;3.80;;;1.08;;
55114;SDS011;41010;53.252;5.786;2023-04-01T10:50:10;5.32;;;1.52;;
55114;SDS011;41010;53.252;5.786;2023-04-01T10:55:37;7.18;;;1.50;;
55114;SDS011;41010;53.252;5.786;2023-04-01T10:58:20;5.38;;;2.08;;
55114;SDS011;41010;53.252;5.786;2023-04-01T11:00:57;5.72;;;1.70;;
55114;SDS011;41010;53.252;5.786;2023-04-01T11:09:07;8.85;;;1.70;;
55114;SDS011;41010;53.252;5.786;2023-04-01T11:12:01;7.60;;;1.98;;
55114;SDS011;41010;53.252;5.786;2023-04-01T11:20:33;4.70;;;1.52;;
55114;SDS011;41010;53.252;5.786;2023-04-01T11:23:14;6.75;;;1.58;;
55114;SDS011;41010;53.252;5.786;2023-04-01T11:25:51;4.22;;;1.30;;
55114;SDS011;41010;53.252;5.786;2023-04-01T11:28:28;8.23;;;1.60;;
55114;SDS011;41010;53.252;5.786;2023-04-01T11:31:05;10.40;;;1.40;;
55114;SDS011;41010;53.252;5.786;2023-04-01T11:33:37;10.35;;;1.33;;
55114;SDS011;41010;53.252;5.786;2023-04-01T11:36:08;7.90;;;1.15;;
55114;SDS011;41010;53.252;5.786;2023-04-01T11:41:30;7.05;;;1.30;;
55114;SDS011;41010;53.252;5.786;2023-04-01T11:44:17;7.32;;;1.50;;
55114;SDS011;41010;53.252;5.786;2023-04-01T11:46:48;5.22;;;1.30;;
55114;SDS011;41010;53.252;5.786;2023-04-01T11:49:25;5.50;;;1.40;;
55114;SDS011;41010;53.252;5.786;2023-04-01T11:57:31;7.00;;;1.70;;
55114;SDS011;41010;53.252;5.786;2023-04-01T12:00:12;6.10;;;1.75;;
55114;SDS011;41010;53.252;5.786;2023-04-01T12:02:42;10.18;;;1.75;;
55114;SDS011;41010;53.252;5.786;2023-04-01T12:05:25;7.80;;;1.58;;
55114;SDS011;41010;53.252;5.786;2023-04-01T12:07:57;8.48;;;1.40;;
55114;SDS011;41010;53.252;5.786;2023-04-01T12:10:32;5.15;;;1.20;;
55114;SDS011;41010;53.252;5.786;2023-04-01T12:13:02;4.00;;;1.33;;
55114;SDS011;41010;53.252;5.786;2023-04-01T12:15:35;6.72;;;1.30;;
55114;SDS011;41010;53.252;5.786;2023-04-01T12:18:09;7.85;;;1.95;;
55114;SDS011;41010;53.252;5.786;2023-04-01T12:20:42;5.28;;;1.40;;
55114;SDS011;41010;53.252;5.786;2023-04-01T12:23:15;6.45;;;1.33;;
55114;SDS011;41010;53.252;5.786;2023-04-01T12:25:54;5.97;;;1.55;;
55114;SDS011;41010;53.252;5.786;2023-04-01T12:28:29;5.50;;;1.52;;
55114;SDS011;41010;53.252;5.786;2023-04-01T12:31:07;4.88;;;1.38;;
55114;SDS011;41010;53.252;5.786;2023-04-01T12:33:48;4.78;;;1.25;;
55114;SDS011;41010;53.252;5.786;2023-04-01T12:36:19;8.48;;;1.35;;
55114;SDS011;41010;53.252;5.786;2023-04-01T12:38:54;4.90;;;1.20;;
55114;SDS011;41010;53.252;5.786;2023-04-01T12:41:27;6.40;;;1.02;;
55114;SDS011;41010;53.252;5.786;2023-04-01T12:44:00;4.20;;;0.95;;
55114;SDS011;41010;53.252;5.786;2023-04-01T12:46:36;5.60;;;1.30;;
55114;SDS011;41010;53.252;5.786;2023-04-01T12:49:23;9.02;;;1.25;;
55114;SDS011;41010;53.252;5.786;2023-04-01T12:52:03;5.68;;;1.30;;
55114;SDS011;41010;53.252;5.786;2023-04-01T12:57:22;5.97;;;1.30;;
55114;SDS011;41010;53.252;5.786;2023-04-01T12:59:56;6.18;;;1.10;;
55114;SDS011;41010;53.252;5.786;2023-04-01T13:02:30;7.07;;;1.42;;
55114;SDS011;41010;53.252;5.786;2023-04-01T13:07:32;8.65;;;1.50;;
55114;SDS011;41010;53.252;5.786;2023-04-01T13:10:06;5.60;;;1.48;;
55114;SDS011;41010;53.252;5.786;2023-04-01T13:12:47;8.07;;;1.63;;
55114;SDS011;41010;53.252;5.786;2023-04-01T13:15:20;6.70;;;1.38;;
55114;SDS011;41010;53.252;5.786;2023-04-01T13:17:52;4.30;;;0.90;;
55114;SDS011;41010;53.252;5.786;2023-04-01T13:20:23;6.72;;;1.50;;
55114;SDS011;41010;53.252;5.786;2023-04-01T13:22:57;9.32;;;1.52;;
55114;SDS011;41010;53.252;5.786;2023-04-01T13:25:27;7.03;;;1.60;;
55114;SDS011;41010;53.252;5.786;2023-04-01T13:28:03;6.13;;;1.20;;
55114;SDS011;41010;53.252;5.786;2023-04-01T13:30:33;5.95;;;1.15;;
55114;SDS011;41010;53.252;5.786;2023-04-01T13:33:04;7.38;;;1.25;;
55114;SDS011;41010;53.252;5.786;2023-04-01T13:35:35;6.05;;;1.30;;
55114;SDS011;41010;53.252;5.786;2023-04-01T13:38:12;5.32;;;1.38;;
55114;SDS011;41010;53.252;5.786;2023-04-01T13:40:45;4.13;;;1.20;;
55114;SDS011;41010;53.252;5.786;2023-04-01T13:43:16;3.92;;;1.10;;
55114;SDS011;41010;53.252;5.786;2023-04-01T13:46:07;3.42;;;1.23;;
55114;SDS011;41010;53.252;5.786;2023-04-01T13:48:41;5.35;;;1.27;;
55114;SDS011;41010;53.252;5.786;2023-04-01T13:56:49;2.70;;;1.10;;
55114;SDS011;41010;53.252;5.786;2023-04-01T14:02:01;4.78;;;1.40;;
55114;SDS011;41010;53.252;5.786;2023-04-01T14:04:41;3.03;;;0.98;;
55114;SDS011;41010;53.252;5.786;2023-04-01T14:07:22;5.47;;;1.20;;
55114;SDS011;41010;53.252;5.786;2023-04-01T14:10:03;5.82;;;1.45;;
55114;SDS011;41010;53.252;5.786;2023-04-01T14:12:33;7.50;;;1.30;;
55114;SDS011;41010;53.252;5.786;2023-04-01T14:15:09;3.17;;;1.10;;
55114;SDS011;41010;53.252;5.786;2023-04-01T14:17:49;6.03;;;1.48;;
55114;SDS011;41010;53.252;5.786;2023-04-01T14:22:51;5.35;;;1.20;;
55114;SDS011;41010;53.252;5.786;2023-04-01T14:25:27;2.15;;;0.95;;
55114;SDS011;41010;53.252;5.786;2023-04-01T14:28:00;9.77;;;1.40;;
55114;SDS011;41010;53.252;5.786;2023-04-01T14:30:34;7.68;;;1.98;;
55114;SDS011;41010;53.252;5.786;2023-04-01T14:33:05;3.25;;;1.20;;
55114;SDS011;41010;53.252;5.786;2023-04-01T14:35:36;11.25;;;1.85;;
55114;SDS011;41010;53.252;5.786;2023-04-01T14:41:08;5.07;;;1.38;;
55114;SDS011;41010;53.252;5.786;2023-04-01T14:43:42;4.32;;;1.52;;
55114;SDS011;41010;53.252;5.786;2023-04-01T14:46:22;6.88;;;1.50;;
55114;SDS011;41010;53.252;5.786;2023-04-01T14:48:53;8.57;;;1.95;;
55114;SDS011;41010;53.252;5.786;2023-04-01T14:51:23;7.72;;;2.22;;
55114;SDS011;41010;53.252;5.786;2023-04-01T14:53:58;9.98;;;2.50;;
55114;SDS011;41010;53.252;5.786;2023-04-01T14:56:36;10.40;;;2.35;;
55114;SDS011;41010;53.252;5.786;2023-04-01T14:59:06;8.77;;;2.97;;
55114;SDS011;41010;53.252;5.786;2023-04-01T15:01:35;12.25;;;3.38;;
55114;SDS011;41010;53.252;5.786;2023-04-01T15:06:44;10.85;;;2.78;;
55114;SDS011;41010;53.252;5.786;2023-04-01T15:09:15;17.40;;;2.90;;
55114;SDS011;41010;53.252;5.786;2023-04-01T15:11:50;14.35;;;3.15;;
55114;SDS011;41010;53.252;5.786;2023-04-01T15:14:31;10.77;;;3.17;;
55114;SDS011;41010;53.252;5.786;2023-04-01T15:19:36;8.90;;;2.70;;
55114;SDS011;41010;53.252;5.786;2023-04-01T15:22:09;11.35;;;2.50;;
55114;SDS011;41010;53.252;5.786;2023-04-01T15:24:45;16.52;;;3.00;;
55114;SDS011;41010;53.252;5.786;2023-04-01T15:27:23;16.38;;;3.25;;
55114;SDS011;41010;53.252;5.786;2023-04-01T15:29:56;13.05;;;3.50;;
55114;SDS011;41010;53.252;5.786;2023-04-01T15:32:30;14.93;;;3.70;;
55114;SDS011;41010;53.252;5.786;2023-04-01T15:35:10;14.15;;;3.38;;
55114;SDS011;41010;53.252;5.786;2023-04-01T15:37:42;15.48;;;3.15;;
55114;SDS011;41010;53.252;5.786;2023-04-01T15:40:15;13.07;;;3.20;;
55114;SDS011;41010;53.252;5.786;2023-04-01T15:42:50;12.73;;;3.20;;
55114;SDS011;41010;53.252;5.786;2023-04-01T15:45:26;9.35;;;3.05;;
55114;SDS011;41010;53.252;5.786;2023-04-01T15:48:01;15.77;;;4.20;;
55114;SDS011;41010;53.252;5.786;2023-04-01T15:53:35;11.35;;;2.90;;
55114;SDS011;41010;53.252;5.786;2023-04-01T15:56:10;15.32;;;3.70;;
55114;SDS011;41010;53.252;5.786;2023-04-01T15:58:44;10.90;;;3.42;;
55114;SDS011;41010;53.252;5.786;2023-04-01T16:01:20;10.88;;;3.45;;
55114;SDS011;41010;53.252;5.786;2023-04-01T16:03:52;11.40;;;3.53;;
55114;SDS011;41010;53.252;5.786;2023-04-01T16:06:26;12.57;;;4.20;;
55114;SDS011;41010;53.252;5.786;2023-04-01T16:11:44;8.38;;;3.50;;
55114;SDS011;41010;53.252;5.786;2023-04-01T16:16:51;8.75;;;3.13;;
55114;SDS011;41010;53.252;5.786;2023-04-01T16:22:07;10.07;;;3.00;;
55114;SDS011;41010;53.252;5.786;2023-04-01T16:24:37;7.97;;;3.30;;
55114;SDS011;41010;53.252;5.786;2023-04-01T16:27:08;7.95;;;3.20;;
55114;SDS011;41010;53.252;5.786;2023-04-01T16:29:40;8.30;;;3.47;;
55114;SDS011;41010;53.252;5.786;2023-04-01T16:35:01;11.60;;;3.42;;
55114;SDS011;41010;53.252;5.786;2023-04-01T16:37:32;10.60;;;3.30;;
55114;SDS011;41010;53.252;5.786;2023-04-01T16:40:09;13.13;;;3.70;;
55114;SDS011;41010;53.252;5.786;2023-04-01T16:42:40;13.60;;;4.00;;
55114;SDS011;41010;53.252;5.786;2023-04-01T16:45:16;12.48;;;3.60;;
55114;SDS011;41010;53.252;5.786;2023-04-01T16:47:46;14.93;;;3.90;;
55114;SDS011;41010;53.252;5.786;2023-04-01T16:50:17;14.52;;;4.53;;
55114;SDS011;41010;53.252;5.786;2023-04-01T16:52:51;14.50;;;3.67;;